createdAt,value
2018-09-19T00:01:20.578Z,76.25
2018-09-19T00:03:56.361Z,75.55
2018-09-19T00:06:32.199Z,76.32
2018-09-19T00:09:10.850Z,76.20
2018-09-19T00:11:46.751Z,75.41
2018-09-19T00:14:22.568Z,75.05
2018-09-19T00:16:58.188Z,74.56
2018-09-19T00:19:33.866Z,76.83
2018-09-19T00:22:09.565Z,78.35
2018-09-19T00:24:45.421Z,79.82
2018-09-19T00:27:21.859Z,82.04
2018-09-19T00:31:22.572Z,83.16
2018-09-19T00:33:58.281Z,83.67
2018-09-19T00:36:34.201Z,84.44
2018-09-19T00:39:10.366Z,84.82
2018-09-19T00:41:46.167Z,84.88
2018-09-19T00:44:22.120Z,86.00
2018-09-19T00:46:58.221Z,85.39
2018-09-19T00:49:34.058Z,85.65
2018-09-19T00:52:09.689Z,86.48
2018-09-19T00:54:45.550Z,87.46
2018-09-19T00:57:22.186Z,85.91
2018-09-19T00:59:58.028Z,83.88
2018-09-19T01:02:34.984Z,82.63
2018-09-19T01:05:10.808Z,81.10
2018-09-19T01:07:46.514Z,81.01
2018-09-19T01:10:22.341Z,79.79
2018-09-19T01:12:58.027Z,80.22
2018-09-19T01:15:33.627Z,82.09
2018-09-19T01:18:09.249Z,83.72
2018-09-19T01:20:44.921Z,83.82
2018-09-19T01:23:20.734Z,83.88
2018-09-19T01:25:56.978Z,83.57
2018-09-19T01:28:32.894Z,83.23
2018-09-19T01:31:09.205Z,82.64
2018-09-19T01:33:45.105Z,81.20
2018-09-19T01:36:20.925Z,81.92
2018-09-19T01:38:56.833Z,81.73
2018-09-19T01:41:32.691Z,81.57
2018-09-19T01:44:08.648Z,81.84
2018-09-19T01:46:44.465Z,81.19
2018-09-19T01:49:20.461Z,80.65
2018-09-19T01:51:56.352Z,79.63
2018-09-19T01:54:32.129Z,80.00
2018-09-19T01:57:07.908Z,79.87
2018-09-19T01:59:43.910Z,79.45
2018-09-19T02:02:19.826Z,79.74
2018-09-19T02:04:56.190Z,79.28
2018-09-19T02:07:32.026Z,78.00
2018-09-19T02:10:07.683Z,78.65
2018-09-19T02:12:43.412Z,77.77
2018-09-19T02:15:19.317Z,78.19
2018-09-19T02:17:55.176Z,79.47
2018-09-19T02:20:30.958Z,81.88
2018-09-19T02:23:07.148Z,85.08
2018-09-19T02:25:42.842Z,86.13
2018-09-19T02:28:19.055Z,86.88
2018-09-19T02:30:55.011Z,88.01
2018-09-19T02:33:31.374Z,87.94
2018-09-19T02:36:07.148Z,87.74
2018-09-19T02:38:42.838Z,86.57
2018-09-19T02:41:18.801Z,84.70
2018-09-19T02:43:54.395Z,85.96
2018-09-19T02:46:31.320Z,87.03
2018-09-19T02:49:06.950Z,87.90
2018-09-19T02:51:42.883Z,86.96
2018-09-19T02:54:18.761Z,84.85
2018-09-19T02:56:55.062Z,84.94
2018-09-19T02:59:30.770Z,85.80
2018-09-19T03:02:06.727Z,86.25
2018-09-19T03:07:19.437Z,86.77
2018-09-19T03:09:55.551Z,88.00
2018-09-19T03:12:31.320Z,86.90
2018-09-19T03:15:07.084Z,86.44
2018-09-19T03:17:43.131Z,84.08
2018-09-19T03:20:19.032Z,83.21
2018-09-19T03:22:54.736Z,84.62
2018-09-19T03:25:30.575Z,86.40
2018-09-19T03:29:30.532Z,88.38
2018-09-19T03:32:07.222Z,92.21
2018-09-19T03:34:43.007Z,92.48
2018-09-19T03:37:18.849Z,92.22
2018-09-19T03:39:55.359Z,92.53
2018-09-19T03:42:31.000Z,92.47
2018-09-19T03:45:07.113Z,92.44
2018-09-19T03:47:43.195Z,91.67
2018-09-19T03:50:19.783Z,90.95
2018-09-19T03:52:55.499Z,91.43
2018-09-19T03:55:32.272Z,91.11
2018-09-19T03:58:08.069Z,90.79
2018-09-19T04:00:44.239Z,91.12
2018-09-19T04:03:20.852Z,89.92
2018-09-19T04:05:56.716Z,89.57
2018-09-19T04:08:32.512Z,88.53
2018-09-19T04:11:09.027Z,85.89
2018-09-19T04:13:44.732Z,85.52
2018-09-19T04:16:20.463Z,87.68
2018-09-19T04:18:56.410Z,88.38
2018-09-19T04:21:32.245Z,89.91
2018-09-19T04:24:07.990Z,90.14
2018-09-19T04:26:43.917Z,88.82
2018-09-19T04:29:20.147Z,87.09
2018-09-19T04:31:55.949Z,87.83
2018-09-19T04:34:31.853Z,87.22
2018-09-19T04:37:07.909Z,85.18
2018-09-19T04:39:43.752Z,84.85
2018-09-19T04:42:20.042Z,84.91
2018-09-19T04:44:55.881Z,85.73
2018-09-19T04:47:31.989Z,84.29
2018-09-19T04:50:07.878Z,83.52
2018-09-19T04:52:43.993Z,83.92
2018-09-19T04:55:23.191Z,83.06
2018-09-19T04:58:02.310Z,84.86
2018-09-19T05:00:38.041Z,85.69
2018-09-19T05:03:14.478Z,86.45
2018-09-19T05:05:50.767Z,85.60
2018-09-19T05:08:26.789Z,85.16
2018-09-19T05:11:03.434Z,84.31
2018-09-19T05:13:39.778Z,84.94
2018-09-19T05:16:16.645Z,86.99
2018-09-19T05:18:52.565Z,86.60
2018-09-19T05:21:28.416Z,84.80
2018-09-19T05:24:04.412Z,82.73
2018-09-19T05:26:40.167Z,82.73
2018-09-19T05:29:18.913Z,82.53
2018-09-19T05:31:54.646Z,82.20
2018-09-19T05:34:30.666Z,82.45
2018-09-19T05:37:06.402Z,82.58
2018-09-19T05:39:42.298Z,81.47
2018-09-19T05:42:17.915Z,80.74
2018-09-19T05:44:53.704Z,80.59
2018-09-19T05:47:29.490Z,81.66
2018-09-19T05:50:05.313Z,81.79
2018-09-19T05:52:41.088Z,81.63
2018-09-19T05:55:16.832Z,79.88
2018-09-19T05:57:53.680Z,77.58
2018-09-19T06:00:41.710Z,75.75
2018-09-19T06:03:17.904Z,74.30
2018-09-19T06:05:54.075Z,74.68
2018-09-19T06:08:29.932Z,75.69
2018-09-19T06:11:05.955Z,73.59
2018-09-19T06:13:41.797Z,72.40
2018-09-19T06:16:17.664Z,72.92
2018-09-19T06:18:53.504Z,71.31
2018-09-19T06:21:29.333Z,69.01
2018-09-19T06:24:05.630Z,67.87
2018-09-19T06:26:41.473Z,67.18
2018-09-19T06:29:17.408Z,66.66
2018-09-19T06:31:53.243Z,65.53
2018-09-19T06:34:29.155Z,65.30
2018-09-19T06:37:05.334Z,64.52
2018-09-19T06:39:41.043Z,64.89
2018-09-19T06:42:16.937Z,64.17
2018-09-19T06:44:52.818Z,63.50
2018-09-19T06:47:29.978Z,63.68
2018-09-19T06:50:06.168Z,63.43
2018-09-19T06:52:42.761Z,61.61
2018-09-19T06:55:18.519Z,60.71
2018-09-19T06:57:54.140Z,60.31
2018-09-19T07:00:29.735Z,60.76
2018-09-19T07:03:06.731Z,60.90
2018-09-19T07:05:42.617Z,59.56
2018-09-19T07:08:19.039Z,58.64
2018-09-19T07:10:54.767Z,58.69
2018-09-19T07:13:30.765Z,58.71
2018-09-19T07:16:07.087Z,57.21
2018-09-19T07:18:43.076Z,55.60
2018-09-19T07:21:19.997Z,54.85
2018-09-19T07:23:55.976Z,54.97
2018-09-19T07:26:31.849Z,53.59
2018-09-19T07:29:10.010Z,53.31
2018-09-19T07:31:47.640Z,54.10
2018-09-19T07:34:23.453Z,54.30
2018-09-19T07:37:00.528Z,54.26
2018-09-19T07:39:36.427Z,54.19
2018-09-19T07:42:14.894Z,52.97
2018-09-19T07:44:51.278Z,52.79
2018-09-19T07:47:27.005Z,52.43
2018-09-19T07:50:02.987Z,51.57
2018-09-19T07:52:39.622Z,50.94
2018-09-19T07:55:15.400Z,51.80
2018-09-19T07:57:51.405Z,50.93
2018-09-19T08:00:27.305Z,51.05
2018-09-19T08:03:03.850Z,50.32
2018-09-19T08:05:52.349Z,49.16
2018-09-19T08:08:28.658Z,49.92
2018-09-19T08:11:04.538Z,49.74
2018-09-19T08:13:40.692Z,49.43
2018-09-19T08:16:19.290Z,49.04
2018-09-19T08:18:55.421Z,48.05
2018-09-19T08:21:31.449Z,47.25
2018-09-19T08:24:07.294Z,46.18
2018-09-19T08:26:44.160Z,45.39
2018-09-19T08:29:20.158Z,46.53
2018-09-19T08:31:56.021Z,45.33
2018-09-19T08:34:34.712Z,46.27
2018-09-19T08:37:11.494Z,46.18
2018-09-19T08:39:47.363Z,45.21
2018-09-19T08:42:23.597Z,45.03
2018-09-19T08:44:59.844Z,44.34
2018-09-19T08:47:35.528Z,43.71
2018-09-19T08:50:11.426Z,43.27
2018-09-19T08:52:47.394Z,43.78
2018-09-19T08:55:23.281Z,43.77
2018-09-19T08:57:59.091Z,43.61
2018-09-19T09:00:34.922Z,42.38
2018-09-19T09:03:10.706Z,42.36
2018-09-19T09:05:46.909Z,41.35
2018-09-19T09:08:22.832Z,41.46
2018-09-19T09:10:58.746Z,40.61
2018-09-19T09:13:35.735Z,39.64
2018-09-19T09:16:11.331Z,39.01
2018-09-19T09:18:47.980Z,38.70
2018-09-19T09:21:23.684Z,38.65
2018-09-19T09:24:00.538Z,38.43
2018-09-19T09:26:37.864Z,38.42
2018-09-19T09:29:15.542Z,37.79
2018-09-19T09:31:51.381Z,36.92
2018-09-19T09:34:27.280Z,36.14
2018-09-19T09:37:09.981Z,35.35
2018-09-19T09:39:47.204Z,35.77
2018-09-19T09:42:23.381Z,34.60
2018-09-19T09:44:59.285Z,34.99
2018-09-19T09:47:35.057Z,34.52
2018-09-19T09:50:11.050Z,33.59
2018-09-19T09:52:47.037Z,33.40
2018-09-19T09:55:23.484Z,33.68
2018-09-19T09:57:59.410Z,34.08
2018-09-19T10:00:40.323Z,34.16
2018-09-19T10:03:16.169Z,33.64
2018-09-19T10:05:51.936Z,32.69
2018-09-19T10:08:27.773Z,32.67
2018-09-19T10:11:05.058Z,32.43
2018-09-19T10:13:40.814Z,32.29
2018-09-19T10:16:16.833Z,31.61
2018-09-19T10:18:52.749Z,31.45
2018-09-19T10:21:29.130Z,30.52
2018-09-19T10:24:06.187Z,31.50
2018-09-19T10:26:42.823Z,32.27
2018-09-19T10:29:19.430Z,31.75
2018-09-19T10:31:55.377Z,30.54
2018-09-19T10:34:32.366Z,31.11
2018-09-19T10:37:08.804Z,30.32
2018-09-19T10:39:46.130Z,30.79
2018-09-19T10:42:22.180Z,30.37
2018-09-19T10:44:59.871Z,30.16
2018-09-19T10:47:36.069Z,29.75
2018-09-19T10:50:11.890Z,28.69
2018-09-19T10:52:47.760Z,27.79
2018-09-19T10:55:24.387Z,28.72
2018-09-19T10:58:00.422Z,29.21
2018-09-19T11:00:36.160Z,28.84
2018-09-19T11:03:12.035Z,29.21
2018-09-19T11:05:51.493Z,28.27
2018-09-19T11:08:27.374Z,28.63
2018-09-19T11:11:04.270Z,28.89
2018-09-19T11:13:40.158Z,29.21
2018-09-19T11:16:16.410Z,28.03
2018-09-19T11:18:52.230Z,27.24
2018-09-19T11:21:29.112Z,27.16
2018-09-19T11:24:04.974Z,26.05
2018-09-19T11:26:40.590Z,26.42
2018-09-19T11:29:16.759Z,26.56
2018-09-19T11:31:52.778Z,25.12
2018-09-19T11:34:28.900Z,24.99
2018-09-19T11:37:04.494Z,24.50
2018-09-19T11:39:40.293Z,24.15
2018-09-19T11:42:17.010Z,23.68
2018-09-19T11:44:52.835Z,24.14
2018-09-19T11:47:28.418Z,23.75
2018-09-19T11:50:04.827Z,24.91
2018-09-19T11:52:40.918Z,23.41
2018-09-19T11:55:11.744Z,23.56
2018-09-19T11:57:42.515Z,23.46
2018-09-19T12:00:13.369Z,23.87
2018-09-19T12:02:44.107Z,22.65
2018-09-19T12:05:14.904Z,22.85
2018-09-19T12:07:45.648Z,23.48
2018-09-19T12:10:17.222Z,23.53
2018-09-19T12:12:48.056Z,23.19
2018-09-19T12:15:18.902Z,23.35
2018-09-19T12:17:49.667Z,22.88
2018-09-19T12:20:20.534Z,22.85
2018-09-19T12:22:51.274Z,24.29
2018-09-19T12:25:24.718Z,23.55
2018-09-19T12:27:55.485Z,23.06
2018-09-19T12:30:26.492Z,22.89
2018-09-19T12:32:58.317Z,21.14
2018-09-19T12:35:30.087Z,23.56
2018-09-19T12:38:01.284Z,22.41
2018-09-19T12:40:32.066Z,22.42
2018-09-19T12:43:02.822Z,20.20
2018-09-19T12:48:10.097Z,20.95
2018-09-19T12:50:40.833Z,21.08
2018-09-19T12:53:11.624Z,21.13
2018-09-19T12:55:42.401Z,21.00
2018-09-19T12:58:13.229Z,22.22
2018-09-19T13:00:43.949Z,22.52
2018-09-19T13:03:14.764Z,22.09
2018-09-19T13:05:45.912Z,21.83
2018-09-19T13:08:16.713Z,22.05
2018-09-19T13:10:47.498Z,21.39
2018-09-19T13:13:18.278Z,21.27
2018-09-19T13:15:49.068Z,19.41
2018-09-19T13:18:19.846Z,19.98
2018-09-19T13:20:50.621Z,19.07
2018-09-19T13:23:21.417Z,20.07
2018-09-19T13:25:52.167Z,19.15
2018-09-19T13:28:23.541Z,16.40
2018-09-19T13:30:54.420Z,17.10
2018-09-19T13:33:25.220Z,16.62
2018-09-19T13:35:55.986Z,16.82
2018-09-19T13:38:26.790Z,15.65
2018-09-19T13:40:57.554Z,13.92
2018-09-19T13:43:28.566Z,14.20
2018-09-19T13:45:59.488Z,12.97
2018-09-19T13:48:30.273Z,13.60
2018-09-19T13:52:34.695Z,12.88
2018-09-19T13:55:05.562Z,13.70
2018-09-19T13:57:36.321Z,13.28
2018-09-19T14:00:07.452Z,11.86
2018-09-19T14:02:38.368Z,11.33
2018-09-19T14:05:09.214Z,11.12
2018-09-19T14:07:39.958Z,12.03
2018-09-19T14:10:10.799Z,11.12
2018-09-19T14:12:41.538Z,11.29
2018-09-19T14:15:12.484Z,12.98
2018-09-19T14:17:43.213Z,11.37
2018-09-19T14:20:14.008Z,11.97
2018-09-19T14:22:44.776Z,11.96
2018-09-19T14:25:15.597Z,10.36
2018-09-19T14:27:46.374Z,11.11
2018-09-19T14:30:17.179Z,11.59
2018-09-19T14:32:48.149Z,10.73
2018-09-19T14:35:18.924Z,11.21
2018-09-19T14:37:49.910Z,10.06
2018-09-19T14:40:20.713Z,10.33
2018-09-19T14:42:51.513Z,11.78
2018-09-19T14:45:22.333Z,11.98
2018-09-19T14:47:53.175Z,13.88
2018-09-19T14:50:23.995Z,14.31
2018-09-19T14:52:55.063Z,16.70
2018-09-19T14:55:25.886Z,15.93
2018-09-19T14:57:56.602Z,16.98
2018-09-19T15:00:27.432Z,18.04
2018-09-19T15:02:58.381Z,18.08
2018-09-19T15:05:29.986Z,18.23
2018-09-19T15:08:00.828Z,19.41
2018-09-19T15:10:31.857Z,19.27
2018-09-19T15:13:02.629Z,19.73
2018-09-19T15:15:33.506Z,19.87
2018-09-19T15:18:04.371Z,19.95
2018-09-19T15:20:35.756Z,20.41
2018-09-19T15:23:06.562Z,20.42
2018-09-19T15:25:37.502Z,19.17
2018-09-19T15:28:08.498Z,21.12
2018-09-19T15:30:39.320Z,20.68
2018-09-19T15:33:10.170Z,21.60
2018-09-19T15:35:40.978Z,21.37
2018-09-19T15:38:14.356Z,21.80
2018-09-19T15:40:45.400Z,22.07
2018-09-19T15:43:16.163Z,22.45
2018-09-19T15:45:46.980Z,23.12
2018-09-19T15:48:17.776Z,23.69
2018-09-19T15:50:48.619Z,24.01
2018-09-19T15:53:19.366Z,24.62
2018-09-19T15:55:50.660Z,23.63
2018-09-19T15:58:21.442Z,24.34
2018-09-19T16:00:52.246Z,24.91
2018-09-19T16:03:23.120Z,23.46
2018-09-19T16:05:54.169Z,23.75
2018-09-19T16:08:25.111Z,23.94
2018-09-19T16:13:34.356Z,24.15
2018-09-19T16:16:05.142Z,24.65
2018-09-19T16:18:36.991Z,24.65
2018-09-19T16:21:07.949Z,27.36
2018-09-19T16:23:39.168Z,27.63
2018-09-19T16:26:09.983Z,27.74
2018-09-19T16:28:40.799Z,27.28
2018-09-19T16:31:11.574Z,29.23
2018-09-19T16:33:42.437Z,26.27
2018-09-19T16:36:13.226Z,27.85
2018-09-19T16:38:44.025Z,26.56
2018-09-19T16:41:14.777Z,28.71
2018-09-19T16:43:45.597Z,29.96
2018-09-19T16:46:16.367Z,30.51
2018-09-19T16:48:47.155Z,31.69
2018-09-19T16:51:17.930Z,32.72
2018-09-19T16:53:48.747Z,34.16
2018-09-19T16:56:19.531Z,34.74
2018-09-19T16:58:58.266Z,35.41
2018-09-19T17:01:29.720Z,35.72
2018-09-19T17:04:00.821Z,33.78
2018-09-19T17:06:31.589Z,34.03
2018-09-19T17:09:03.140Z,34.65
2018-09-19T17:11:33.929Z,35.54
2018-09-19T17:14:04.792Z,35.74
2018-09-19T17:16:35.566Z,35.90
2018-09-19T17:19:06.419Z,38.18
2018-09-19T17:21:37.683Z,38.11
2018-09-19T17:24:08.912Z,38.02
2018-09-19T17:26:39.711Z,37.33
2018-09-19T17:29:10.693Z,38.60
2018-09-19T17:31:41.885Z,38.04
2018-09-19T17:34:13.158Z,36.93
2018-09-19T17:36:43.930Z,37.89
2018-09-19T17:39:14.728Z,36.48
2018-09-19T17:41:45.637Z,37.31
2018-09-19T17:44:16.650Z,38.77
2018-09-19T17:46:47.400Z,39.72
2018-09-19T17:49:18.236Z,39.63
2018-09-19T17:51:49.023Z,41.20
2018-09-19T17:54:19.867Z,41.87
2018-09-19T17:56:51.445Z,43.90
2018-09-19T17:59:22.323Z,44.34
2018-09-19T18:01:53.523Z,44.17
2018-09-19T18:04:24.348Z,44.93
2018-09-19T18:06:55.128Z,45.46
2018-09-19T18:09:26.391Z,44.49
2018-09-19T18:11:57.161Z,44.99
2018-09-19T18:17:04.035Z,45.97
2018-09-19T18:19:34.816Z,48.92
2018-09-19T18:22:05.636Z,46.50
2018-09-19T18:24:36.372Z,48.26
2018-09-19T18:27:07.256Z,48.81
2018-09-19T18:29:38.174Z,47.43
2018-09-19T18:32:09.572Z,52.40
2018-09-19T18:34:51.920Z,52.10
2018-09-19T18:37:22.743Z,53.82
2018-09-19T18:39:53.523Z,51.23
2018-09-19T18:42:24.318Z,54.06
2018-09-19T18:44:58.440Z,54.20
2018-09-19T18:47:29.277Z,53.70
2018-09-19T18:50:00.522Z,51.25
2018-09-19T18:52:31.597Z,52.09
2018-09-19T18:55:02.347Z,52.42
2018-09-19T18:57:33.130Z,52.62
2018-09-19T19:00:04.905Z,53.30
2018-09-19T19:02:35.768Z,55.02
2018-09-19T19:05:06.610Z,55.01
2018-09-19T19:07:37.432Z,51.24
2018-09-19T19:10:08.617Z,50.77
2018-09-19T19:12:39.674Z,52.58
2018-09-19T19:15:10.464Z,54.53
2018-09-19T19:20:17.838Z,53.99
2018-09-19T19:22:48.599Z,52.43
2018-09-19T19:25:19.421Z,53.25
2018-09-19T19:27:50.223Z,55.91
2018-09-19T19:30:21.055Z,55.31
2018-09-19T19:32:52.040Z,54.54
2018-09-19T19:35:23.049Z,54.76
2018-09-19T19:37:53.851Z,56.50
2018-09-19T19:40:25.042Z,56.77
2018-09-19T19:42:55.828Z,55.01
2018-09-19T19:45:26.645Z,55.63
2018-09-19T19:47:57.428Z,56.94
2018-09-19T19:50:28.250Z,54.54
2018-09-19T19:52:59.015Z,56.89
2018-09-19T19:55:29.854Z,55.61
2018-09-19T19:58:00.621Z,54.22
2018-09-19T20:00:36.580Z,55.05
2018-09-19T20:03:12.306Z,57.17
2018-09-19T20:05:48.164Z,58.63
2018-09-19T20:08:24.689Z,58.29
2018-09-19T20:11:00.482Z,58.27
2018-09-19T20:13:36.219Z,55.98
2018-09-19T20:16:12.259Z,57.01
2018-09-19T20:18:54.097Z,56.62
2018-09-19T20:21:30.046Z,57.21
2018-09-19T20:24:05.842Z,58.14
2018-09-19T20:26:42.095Z,58.73
2018-09-19T20:29:17.770Z,58.97
2018-09-19T20:31:53.683Z,59.16
2018-09-19T20:34:36.635Z,58.96
2018-09-19T20:37:12.818Z,59.03
2018-09-19T20:39:48.726Z,59.61
2018-09-19T20:42:24.600Z,59.99
2018-09-19T20:45:00.942Z,60.23
2018-09-19T20:47:36.796Z,60.55
2018-09-19T20:50:13.905Z,60.61
2018-09-19T20:52:49.834Z,60.91
2018-09-19T20:55:25.593Z,61.00
2018-09-19T20:58:01.498Z,60.97
2018-09-19T21:00:37.234Z,60.51
2018-09-19T21:03:13.057Z,60.20
2018-09-19T21:05:49.795Z,60.00
2018-09-19T21:08:26.056Z,60.53
2018-09-19T21:11:02.292Z,61.71
2018-09-19T21:13:38.377Z,62.35
2018-09-19T21:16:14.045Z,61.44
2018-09-19T21:18:49.816Z,61.12
2018-09-19T21:21:25.530Z,62.61
2018-09-19T21:24:01.492Z,62.57
2018-09-19T21:26:38.920Z,62.53
2018-09-19T21:29:15.848Z,61.90
2018-09-19T21:31:52.067Z,62.24
2018-09-19T21:34:28.559Z,62.70
2018-09-19T21:37:07.904Z,61.73
2018-09-19T21:39:44.125Z,61.70
2018-09-19T21:42:20.177Z,61.75
2018-09-19T21:44:56.583Z,63.18
2018-09-19T21:47:32.342Z,62.39
2018-09-19T21:50:12.905Z,62.28
2018-09-19T21:52:48.640Z,62.30
2018-09-19T21:55:24.564Z,62.18
2018-09-19T21:58:04.191Z,61.67
2018-09-19T22:00:40.133Z,62.37
2018-09-19T22:03:15.815Z,61.76
2018-09-19T22:05:51.627Z,62.95
2018-09-19T22:08:27.465Z,63.92
2018-09-19T22:11:03.838Z,64.79
2018-09-19T22:13:39.596Z,65.48
2018-09-19T22:16:15.485Z,65.67
2018-09-19T22:18:51.304Z,65.92
2018-09-19T22:21:27.183Z,66.45
2018-09-19T22:24:03.749Z,67.29
2018-09-19T22:26:39.550Z,67.39
2018-09-19T22:29:15.134Z,66.02
2018-09-19T22:31:50.990Z,66.93
2018-09-19T22:34:26.767Z,67.29
2018-09-19T22:37:02.693Z,68.21
2018-09-19T22:39:38.684Z,68.75
2018-09-19T22:42:14.614Z,68.45
2018-09-19T22:44:50.658Z,70.19
2018-09-19T22:47:26.913Z,70.46
2018-09-19T22:50:07.844Z,70.67
2018-09-19T22:52:43.683Z,70.29
2018-09-19T22:55:19.939Z,69.92
2018-09-19T22:57:56.107Z,69.16
2018-09-19T23:00:31.937Z,68.54
2018-09-19T23:03:07.703Z,67.58
2018-09-19T23:05:43.562Z,67.19
2018-09-19T23:08:19.346Z,66.53
2018-09-19T23:10:55.213Z,66.72
2018-09-19T23:13:30.990Z,67.29
2018-09-19T23:16:06.724Z,67.95
2018-09-19T23:18:42.514Z,67.27
2018-09-19T23:21:18.524Z,67.64
2018-09-19T23:23:54.958Z,69.54
2018-09-19T23:26:31.274Z,70.50
2018-09-19T23:29:07.070Z,70.12
2018-09-19T23:31:42.784Z,70.46
2018-09-19T23:34:18.461Z,69.75
2018-09-19T23:36:54.337Z,69.19
2018-09-19T23:39:30.097Z,68.63
2018-09-19T23:42:05.965Z,69.15
2018-09-19T23:44:41.833Z,69.27
2018-09-19T23:47:17.555Z,68.98
2018-09-19T23:49:53.497Z,69.09
2018-09-19T23:52:29.543Z,68.95
2018-09-19T23:55:05.933Z,67.87
2018-09-19T23:57:41.902Z,67.02
